Time;durP1;ratioP1;P1;durP2;ratioP2;P2;SDS_P1;SDS_P2;PMS_P1;PMS_P2;Temp;Humidity;BMP_temperature;BMP_pressure;BME280_temperature;BME280_humidity;BME280_pressure;Samples;Min_cycle;Max_cycle;Signal;HPM_P1;HPM_P2
2023/03/02 00:02:16;;;;;;;6.57;4.47;;;2.40;98.00;;;;;;5011816;28;21084;-67
2023/03/02 00:04:47;;;;;;;8.57;4.60;;;2.30;98.00;;;;;;5011738;28;20594;-66
2023/03/02 00:07:19;;;;;;;12.27;5.30;;;2.30;98.00;;;;;;5011648;28;20508;-67
2023/03/02 00:09:46;;;;;;;11.17;5.27;;;2.20;98.00;;;;;;5011932;28;20465;-67
2023/03/02 00:12:14;;;;;;;12.10;3.97;;;2.20;98.00;;;;;;5011675;28;20854;-67
2023/03/02 00:14:41;;;;;;;7.67;4.60;;;2.20;98.00;;;;;;5014999;28;20463;-67
2023/03/02 00:17:09;;;;;;;8.30;4.80;;;2.20;98.00;;;;;;5015738;28;20463;-67
2023/03/02 00:19:36;;;;;;;8.03;4.43;;;2.20;98.00;;;;;;5015492;28;20470;-68
2023/03/02 00:22:03;;;;;;;7.00;4.70;;;2.30;98.00;;;;;;5015640;28;20863;-67
2023/03/02 00:24:32;;;;;;;9.40;4.87;;;2.40;98.00;;;;;;5015410;28;20477;-67
2023/03/02 00:26:59;;;;;;;4.73;2.80;;;2.40;98.00;;;;;;5015553;28;20464;-67
2023/03/02 00:29:26;;;;;;;9.80;4.53;;;2.30;98.00;;;;;;5015635;28;21108;-67
2023/03/02 00:31:54;;;;;;;9.97;4.67;;;2.30;98.00;;;;;;5015485;28;20462;-67
2023/03/02 00:34:21;;;;;;;7.53;4.40;;;2.20;98.00;;;;;;5015426;28;20464;-67
2023/03/02 00:36:48;;;;;;;8.93;4.93;;;2.20;98.00;;;;;;5015495;28;20901;-67
2023/03/02 00:39:18;;;;;;;8.50;4.30;;;2.10;98.00;;;;;;5015271;28;20504;-67
2023/03/02 00:41:48;;;;;;;7.30;4.47;;;2.00;98.00;;;;;;5014422;28;20803;-67
2023/03/02 00:44:16;;;;;;;9.83;4.60;;;2.00;98.00;;;;;;5015148;28;20460;-67
2023/03/02 00:46:44;;;;;;;9.10;4.97;;;1.90;98.00;;;;;;5015549;28;20467;-66
2023/03/02 00:49:11;;;;;;;6.00;3.33;;;2.00;98.00;;;;;;5015213;28;20492;-67
2023/03/02 00:51:39;;;;;;;7.30;3.97;;;2.10;98.00;;;;;;5015188;28;20461;-67
2023/03/02 00:54:06;;;;;;;11.63;4.53;;;2.20;98.00;;;;;;5015060;28;20795;-67
2023/03/02 00:56:33;;;;;;;7.87;4.40;;;2.20;98.00;;;;;;5014928;28;20449;-67
2023/03/02 00:59:06;;;;;;;9.53;3.50;;;2.20;98.00;;;;;;5013320;28;20449;-67
2023/03/02 01:01:33;;;;;;;6.00;3.77;;;2.20;98.00;;;;;;5013574;28;20462;-67
2023/03/02 01:04:00;;;;;;;6.77;3.07;;;2.20;98.00;;;;;;5014703;28;20517;-66
2023/03/02 01:06:27;;;;;;;10.97;4.03;;;2.20;98.00;;;;;;5014506;28;20491;-66
2023/03/02 01:08:54;;;;;;;11.90;4.93;;;2.20;98.00;;;;;;5014794;28;20862;-67
2023/03/02 01:11:22;;;;;;;5.07;3.63;;;2.10;98.00;;;;;;5014708;28;20457;-67
2023/03/02 01:13:50;;;;;;;9.47;4.30;;;2.10;98.00;;;;;;5014519;28;20502;-67
2023/03/02 01:16:18;;;;;;;9.90;3.50;;;2.00;98.00;;;;;;5014420;28;20468;-67
2023/03/02 01:18:48;;;;;;;8.83;3.60;;;2.00;98.00;;;;;;5014765;28;20470;-67
2023/03/02 01:21:16;;;;;;;12.87;5.00;;;2.00;98.00;;;;;;5014840;28;20783;-67
2023/03/02 01:23:43;;;;;;;10.00;4.40;;;1.90;98.00;;;;;;5014298;28;20461;-67
2023/03/02 01:26:10;;;;;;;7.00;4.03;;;1.80;98.00;;;;;;5014553;28;20485;-67
2023/03/02 01:28:38;;;;;;;5.23;3.93;;;1.80;98.00;;;;;;5014486;28;20800;-67
2023/03/02 01:31:06;;;;;;;12.20;5.50;;;1.80;98.00;;;;;;5013284;28;20607;-66
2023/03/02 01:33:34;;;;;;;11.67;4.77;;;1.80;98.00;;;;;;5014304;28;20552;-67
2023/03/02 01:36:02;;;;;;;10.40;4.80;;;1.80;98.00;;;;;;5014299;28;20471;-67
2023/03/02 01:38:29;;;;;;;9.77;5.07;;;1.80;98.00;;;;;;5014240;28;20466;-67
2023/03/02 01:40:56;;;;;;;7.17;3.47;;;1.90;98.00;;;;;;5013369;28;20454;-67
2023/03/02 01:43:23;;;;;;;10.47;4.80;;;1.80;98.00;;;;;;5014168;28;20464;-67
2023/03/02 01:45:53;;;;;;;6.53;3.80;;;1.70;98.00;;;;;;5014076;28;20480;-67
2023/03/02 01:48:25;;;;;;;8.63;4.40;;;1.80;98.00;;;;;;5013936;28;20456;-66
2023/03/02 01:50:55;;;;;;;5.80;3.70;;;1.60;98.00;;;;;;5014085;28;21165;-67
2023/03/02 01:53:24;;;;;;;8.87;4.50;;;1.50;98.00;;;;;;5013959;28;20828;-67
2023/03/02 01:55:52;;;;;;;6.97;3.63;;;1.50;98.00;;;;;;5013688;28;20459;-67
2023/03/02 01:58:21;;;;;;;8.07;5.00;;;1.50;98.00;;;;;;5013607;28;20451;-67
2023/03/02 02:00:48;;;;;;;7.93;3.80;;;1.40;98.00;;;;;;5013553;28;20886;-67
2023/03/02 02:03:20;;;;;;;6.70;4.10;;;1.20;98.00;;;;;;5013568;28;20460;-67
2023/03/02 02:05:58;;;;;;;9.70;4.03;;;1.20;98.00;;;;;;5013560;28;20587;-67
2023/03/02 02:08:25;;;;;;;11.43;5.30;;;1.20;98.00;;;;;;5013757;28;20938;-67
2023/03/02 02:10:54;;;;;;;6.83;4.20;;;1.20;98.00;;;;;;5013362;28;20517;-67
2023/03/02 02:13:21;;;;;;;10.10;4.03;;;1.10;98.00;;;;;;5012347;28;20526;-67
2023/03/02 02:15:50;;;;;;;10.27;4.50;;;1.10;98.00;;;;;;5012243;28;20456;-67
2023/03/02 02:18:17;;;;;;;8.57;3.97;;;1.00;98.00;;;;;;5013639;28;20470;-67
2023/03/02 02:20:46;;;;;;;11.87;4.33;;;1.10;98.00;;;;;;5013633;28;20935;-67
2023/03/02 02:23:39;;;;;;;8.93;5.20;;;1.20;98.00;;;;;;5013367;28;20463;-67
2023/03/02 02:26:17;;;;;;;6.50;4.07;;;1.20;98.00;;;;;;5011307;28;20487;-67
2023/03/02 02:28:48;;;;;;;7.67;4.10;;;1.10;98.00;;;;;;5013306;28;20463;-67
2023/03/02 02:31:21;;;;;;;6.47;3.57;;;1.00;98.00;;;;;;5013317;28;20788;-67
2023/03/02 02:33:55;;;;;;;7.10;3.63;;;1.00;98.00;;;;;;5013281;28;20464;-67
2023/03/02 02:36:25;;;;;;;6.33;3.73;;;1.00;98.00;;;;;;5012604;28;20456;-67
2023/03/02 02:38:56;;;;;;;9.87;6.17;;;1.10;98.00;;;;;;5013284;28;20459;-67
2023/03/02 02:41:29;;;;;;;8.97;5.03;;;1.00;98.00;;;;;;5013355;28;20855;-67
2023/03/02 02:43:58;;;;;;;6.57;4.53;;;0.90;98.00;;;;;;5013273;28;20451;-67
2023/03/02 02:46:26;;;;;;;6.40;3.83;;;0.80;98.00;;;;;;5012914;28;21001;-67
2023/03/02 02:48:54;;;;;;;8.10;4.17;;;0.90;98.00;;;;;;5012870;28;20452;-67
2023/03/02 02:51:26;;;;;;;5.40;3.30;;;0.80;98.00;;;;;;5012836;28;20455;-67
2023/03/02 02:53:57;;;;;;;7.80;4.60;;;0.90;98.00;;;;;;5012703;28;20957;-66
2023/03/02 02:56:28;;;;;;;7.97;4.40;;;0.90;98.00;;;;;;5012645;28;20823;-67
2023/03/02 02:58:58;;;;;;;8.03;3.60;;;0.90;98.00;;;;;;5012604;28;20949;-67
2023/03/02 03:01:26;;;;;;;8.87;4.70;;;0.90;98.00;;;;;;5012571;28;20458;-67
2023/03/02 03:03:57;;;;;;;6.50;3.77;;;0.90;98.00;;;;;;5012542;28;20460;-67
2023/03/02 03:06:26;;;;;;;7.20;4.37;;;1.00;98.00;;;;;;5012411;28;20483;-67
2023/03/02 03:09:00;;;;;;;8.80;3.67;;;1.00;98.00;;;;;;5012360;28;20460;-67
2023/03/02 03:11:31;;;;;;;7.43;4.07;;;0.90;98.00;;;;;;5012395;28;20467;-67
2023/03/02 03:14:04;;;;;;;8.37;4.37;;;0.80;98.00;;;;;;5012260;28;20474;-67
2023/03/02 03:16:32;;;;;;;8.40;4.37;;;0.80;98.00;;;;;;5027921;28;20466;-67
2023/03/02 03:19:04;;;;;;;16.10;5.47;;;0.70;98.00;;;;;;5032138;28;20463;-67
2023/03/02 03:21:31;;;;;;;4.77;3.10;;;0.70;98.00;;;;;;5032098;28;20501;-67
2023/03/02 03:23:58;;;;;;;7.57;4.40;;;0.70;98.00;;;;;;5032290;28;20454;-67
2023/03/02 03:26:25;;;;;;;9.33;4.43;;;0.80;98.00;;;;;;5013894;28;20569;-67
2023/03/02 03:28:56;;;;;;;7.50;4.00;;;1.10;98.00;;;;;;5031389;28;20473;-67
2023/03/02 03:31:24;;;;;;;8.27;3.87;;;1.20;98.00;;;;;;5031289;28;20459;-67
2023/03/02 03:33:51;;;;;;;3.93;2.50;;;1.00;98.00;;;;;;5032151;28;20983;-67
2023/03/02 03:36:18;;;;;;;11.50;3.90;;;0.90;98.00;;;;;;5032251;28;20490;-67
2023/03/02 03:38:45;;;;;;;7.40;3.87;;;0.70;98.00;;;;;;5032181;28;20457;-67
2023/03/02 03:41:12;;;;;;;4.57;3.20;;;0.50;98.00;;;;;;5032196;28;20466;-67
2023/03/02 03:43:39;;;;;;;11.53;4.53;;;0.50;98.00;;;;;;5031982;28;20461;-67
2023/03/02 03:46:08;;;;;;;12.10;5.30;;;0.40;98.00;;;;;;5031866;28;20486;-67
2023/03/02 03:48:35;;;;;;;8.93;4.10;;;0.40;98.00;;;;;;5035660;28;21019;-67
2023/03/02 03:51:02;;;;;;;9.47;3.73;;;0.40;98.00;;;;;;5035963;28;20457;-67
2023/03/02 03:53:30;;;;;;;3.80;2.97;;;0.40;98.00;;;;;;5035730;28;20454;-67
2023/03/02 03:55:57;;;;;;;6.67;3.30;;;0.50;98.00;;;;;;5035809;28;20494;-67
2023/03/02 03:58:25;;;;;;;5.97;3.63;;;0.50;98.00;;;;;;5035658;28;20473;-67
2023/03/02 04:00:52;;;;;;;10.90;4.67;;;0.50;98.00;;;;;;5035925;28;20473;-68
2023/03/02 04:03:21;;;;;;;8.40;3.90;;;0.60;98.00;;;;;;5035743;28;20454;-68
2023/03/02 04:05:49;;;;;;;8.20;4.13;;;0.80;98.00;;;;;;5035382;28;20482;-68
2023/03/02 04:08:16;;;;;;;10.50;5.23;;;0.70;98.00;;;;;;5035615;28;20455;-68
2023/03/02 04:10:43;;;;;;;12.33;4.20;;;0.50;98.00;;;;;;5035415;28;20512;-67
2023/03/02 04:13:11;;;;;;;8.90;3.40;;;0.40;98.00;;;;;;5035368;28;20466;-67
2023/03/02 04:15:40;;;;;;;7.10;3.80;;;0.30;98.00;;;;;;5017753;28;20462;-67
2023/03/02 04:18:07;;;;;;;6.83;3.63;;;0.20;98.00;;;;;;5035574;28;20455;-68
2023/03/02 04:20:36;;;;;;;9.50;4.27;;;0.20;98.00;;;;;;5035392;28;20462;-68
2023/03/02 04:23:03;;;;;;;5.40;3.27;;;0.20;98.00;;;;;;5035500;28;20467;-67
2023/03/02 04:25:31;;;;;;;6.37;3.30;;;0.30;98.00;;;;;;5035251;28;20494;-68
2023/03/02 04:27:58;;;;;;;7.77;4.10;;;0.40;98.00;;;;;;5035410;28;20473;-67
2023/03/02 04:30:26;;;;;;;5.40;3.73;;;0.40;98.00;;;;;;5035252;28;20508;-67
2023/03/02 04:32:56;;;;;;;7.37;3.93;;;0.20;98.00;;;;;;5035395;28;20453;-68
2023/03/02 04:38:12;;;;;;;16.83;4.50;;;0.20;98.00;;;;;;5034031;28;20537;-68
2023/03/02 04:40:39;;;;;;;4.80;3.67;;;0.20;98.00;;;;;;5035366;28;20658;-67
2023/03/02 04:43:06;;;;;;;9.00;4.17;;;0.30;98.00;;;;;;5035041;28;20462;-68
2023/03/02 04:45:33;;;;;;;7.17;4.33;;;0.20;98.00;;;;;;5034649;28;20450;-67
2023/03/02 04:48:00;;;;;;;10.20;3.90;;;0.30;98.00;;;;;;5034998;28;20453;-68
2023/03/02 04:50:28;;;;;;;7.50;3.57;;;0.00;98.00;;;;;;5017139;28;20466;-67
2023/03/02 04:52:55;;;;;;;6.57;4.47;;;0.00;98.00;;;;;;5034675;28;20967;-67
2023/03/02 04:55:26;;;;;;;13.27;4.80;;;0.00;98.00;;;;;;5034538;28;20459;-67
2023/03/02 04:57:53;;;;;;;8.27;3.90;;;-0.10;98.00;;;;;;5034531;28;20464;-67
2023/03/02 05:00:21;;;;;;;8.97;3.93;;;0.00;98.00;;;;;;5033897;28;20467;-67
2023/03/02 05:02:49;;;;;;;7.10;3.73;;;0.00;98.00;;;;;;5034740;28;20458;-67
2023/03/02 05:05:19;;;;;;;7.37;3.80;;;0.10;98.00;;;;;;5034624;28;20466;-67
2023/03/02 05:07:46;;;;;;;11.03;5.97;;;0.30;98.00;;;;;;5034524;28;21007;-67
2023/03/02 05:10:14;;;;;;;8.70;4.00;;;0.20;98.00;;;;;;5034612;28;20937;-67
2023/03/02 05:12:56;;;;;;;6.60;3.97;;;0.30;98.00;;;;;;5017228;28;20493;-67
2023/03/02 05:15:24;;;;;;;9.47;4.10;;;0.30;98.00;;;;;;5034352;28;20473;-67
2023/03/02 05:17:51;;;;;;;8.97;3.90;;;0.30;98.00;;;;;;5034547;28;20454;-67
2023/03/02 05:20:19;;;;;;;3.33;2.77;;;0.10;98.00;;;;;;5034366;28;20822;-68
2023/03/02 05:22:47;;;;;;;5.10;3.63;;;0.00;98.00;;;;;;5034243;28;20976;-67
2023/03/02 05:25:17;;;;;;;9.67;4.73;;;0.00;98.00;;;;;;5034540;28;20505;-67
2023/03/02 05:27:45;;;;;;;7.13;3.50;;;0.10;98.00;;;;;;5034394;28;20488;-67
2023/03/02 05:30:14;;;;;;;6.97;4.60;;;0.20;98.00;;;;;;5034068;28;20465;-67
2023/03/02 05:32:41;;;;;;;8.97;3.83;;;0.00;98.00;;;;;;5034364;28;20469;-67
2023/03/02 05:35:08;;;;;;;8.10;4.10;;;-0.10;98.00;;;;;;5034086;28;20952;-67
2023/03/02 05:37:40;;;;;;;7.40;4.43;;;-0.10;98.00;;;;;;5034265;28;20458;-68
2023/03/02 05:40:09;;;;;;;6.83;4.17;;;0.00;98.00;;;;;;5033881;28;20466;-67
2023/03/02 05:42:36;;;;;;;6.13;3.43;;;-0.10;98.00;;;;;;5033940;28;20896;-67
2023/03/02 05:45:06;;;;;;;8.00;4.20;;;-0.10;98.00;;;;;;5016007;28;20947;-68
2023/03/02 05:47:34;;;;;;;8.03;5.00;;;-0.10;98.00;;;;;;5033891;28;20486;-67
2023/03/02 05:50:01;;;;;;;5.13;3.50;;;-0.20;98.00;;;;;;5033768;28;20455;-68
2023/03/02 05:52:29;;;;;;;8.50;3.80;;;-0.10;98.00;;;;;;5033849;28;20813;-69
2023/03/02 05:54:56;;;;;;;6.20;2.70;;;-0.20;98.00;;;;;;5033494;28;20974;-68
2023/03/02 05:57:24;;;;;;;5.70;3.73;;;-0.10;98.00;;;;;;5033742;28;20454;-68
2023/03/02 05:59:51;;;;;;;10.83;4.90;;;0.00;98.00;;;;;;5033544;28;20446;-68
2023/03/02 06:02:20;;;;;;;6.20;3.37;;;0.00;98.00;;;;;;5033312;28;20455;-68
2023/03/02 06:04:47;;;;;;;5.87;3.57;;;-0.10;98.00;;;;;;5033370;28;20459;-68
2023/03/02 06:07:14;;;;;;;6.50;4.00;;;-0.20;98.00;;;;;;5015916;28;20482;-68
2023/03/02 06:09:41;;;;;;;9.23;4.73;;;-0.10;98.00;;;;;;5033189;28;20937;-68
2023/03/02 06:12:09;;;;;;;5.77;3.63;;;-0.20;98.00;;;;;;5032549;28;20532;-68
2023/03/02 06:14:36;;;;;;;12.63;3.90;;;-0.20;98.00;;;;;;5033115;28;20530;-68
2023/03/02 06:17:03;;;;;;;4.70;2.67;;;-0.30;98.00;;;;;;5033458;28;20549;-68
2023/03/02 06:19:32;;;;;;;9.97;5.20;;;-0.30;98.00;;;;;;5015382;28;20516;-68
2023/03/02 06:22:00;;;;;;;13.00;6.03;;;-0.40;98.00;;;;;;5033245;28;20462;-68
2023/03/02 06:24:28;;;;;;;8.13;4.60;;;-0.30;98.00;;;;;;5033103;28;20522;-68
2023/03/02 06:26:55;;;;;;;4.17;3.10;;;-0.20;98.00;;;;;;5015149;28;20492;-68
2023/03/02 06:29:23;;;;;;;10.57;4.03;;;-0.20;98.00;;;;;;5015653;28;20461;-68
2023/03/02 06:31:50;;;;;;;11.37;4.30;;;-0.10;98.00;;;;;;5033037;28;20458;-68
2023/03/02 06:34:17;;;;;;;9.57;4.10;;;-0.10;98.00;;;;;;5033099;28;20478;-68
2023/03/02 06:36:45;;;;;;;15.20;5.17;;;-0.10;98.00;;;;;;5014852;28;20454;-67
2023/03/02 06:39:15;;;;;;;12.20;3.53;;;-0.10;98.00;;;;;;5032401;28;20451;-67
2023/03/02 06:41:42;;;;;;;6.60;3.10;;;0.00;98.00;;;;;;5032539;28;20526;-68
2023/03/02 06:44:11;;;;;;;5.60;3.03;;;0.10;98.00;;;;;;5032269;28;20451;-68
2023/03/02 06:46:39;;;;;;;9.87;4.40;;;0.30;98.00;;;;;;5032031;28;20486;-67
2023/03/02 06:49:06;;;;;;;9.53;3.93;;;0.50;98.00;;;;;;5032017;28;20457;-67
2023/03/02 06:51:35;;;;;;;5.57;3.80;;;0.50;98.00;;;;;;5031913;28;20452;-67
2023/03/02 06:54:05;;;;;;;5.57;3.40;;;0.40;98.00;;;;;;5031903;28;20913;-68
2023/03/02 06:56:32;;;;;;;7.93;4.47;;;0.30;98.00;;;;;;5031841;28;20463;-68
2023/03/02 06:59:00;;;;;;;8.80;4.47;;;0.30;98.00;;;;;;5031969;28;20462;-68
2023/03/02 07:01:31;;;;;;;7.60;3.87;;;0.40;98.00;;;;;;5031608;28;20466;-63
2023/03/02 07:03:58;;;;;;;6.27;4.30;;;0.30;98.00;;;;;;5031688;28;20818;-63
2023/03/02 07:06:25;;;;;;;9.03;4.80;;;0.30;98.00;;;;;;5031468;28;20579;-64
2023/03/02 07:08:52;;;;;;;6.07;3.60;;;0.30;98.00;;;;;;5031589;28;20462;-63
2023/03/02 07:11:21;;;;;;;10.23;4.13;;;0.40;98.00;;;;;;5031602;28;20457;-63
2023/03/02 07:13:50;;;;;;;7.80;3.70;;;0.40;98.00;;;;;;5031487;28;20462;-64
2023/03/02 07:16:17;;;;;;;10.53;4.63;;;0.40;98.00;;;;;;5031366;28;20470;-64
2023/03/02 07:18:51;;;;;;;7.70;4.20;;;0.50;98.00;;;;;;5031901;28;20455;-64
2023/03/02 07:21:18;;;;;;;11.03;4.30;;;0.50;98.00;;;;;;5030958;28;20895;-63
2023/03/02 07:23:46;;;;;;;7.10;3.97;;;0.60;98.00;;;;;;5031380;28;20944;-63
2023/03/02 07:26:13;;;;;;;7.77;4.80;;;0.90;98.00;;;;;;5030782;28;20458;-63
2023/03/02 07:28:43;;;;;;;5.53;4.00;;;1.00;98.00;;;;;;5031394;28;20564;-63
2023/03/02 07:31:10;;;;;;;4.60;3.33;;;1.20;98.00;;;;;;5031469;28;20464;-63
2023/03/02 07:33:39;;;;;;;11.43;3.97;;;1.20;98.00;;;;;;5031347;28;20466;-63
2023/03/02 07:36:08;;;;;;;8.40;5.17;;;1.40;98.00;;;;;;5031380;28;20463;-63
2023/03/02 07:38:36;;;;;;;11.63;4.10;;;1.40;98.00;;;;;;5031117;28;20861;-63
2023/03/02 07:41:08;;;;;;;7.23;4.43;;;1.50;98.00;;;;;;5031204;28;20980;-63
2023/03/02 07:43:35;;;;;;;6.90;3.53;;;1.70;98.00;;;;;;5012855;28;20552;-63
2023/03/02 07:46:04;;;;;;;6.13;4.40;;;1.80;98.00;;;;;;5013760;28;20498;-63
2023/03/02 07:48:32;;;;;;;15.43;5.13;;;1.80;98.00;;;;;;5030870;28;20572;-63
2023/03/02 07:51:00;;;;;;;11.37;5.00;;;1.90;98.00;;;;;;5030649;28;20509;-63
2023/03/02 07:53:27;;;;;;;13.53;4.87;;;1.90;98.00;;;;;;5031076;28;20455;-63
2023/03/02 07:55:54;;;;;;;7.60;3.83;;;2.10;98.00;;;;;;5030903;28;20458;-63
2023/03/02 07:58:24;;;;;;;14.40;6.20;;;2.20;98.00;;;;;;5013679;28;20808;-63
2023/03/02 08:00:51;;;;;;;11.17;5.07;;;2.30;98.00;;;;;;5030902;28;20465;-63
2023/03/02 08:03:20;;;;;;;9.70;5.27;;;2.40;98.00;;;;;;5013236;28;20458;-63
2023/03/02 08:05:47;;;;;;;13.80;4.93;;;2.40;98.00;;;;;;5030897;28;20458;-63
2023/03/02 08:08:14;;;;;;;4.93;3.20;;;2.40;98.00;;;;;;5030815;28;20955;-63
2023/03/02 08:10:41;;;;;;;10.73;5.20;;;2.50;98.00;;;;;;5030521;28;20952;-62
2023/03/02 08:13:08;;;;;;;8.20;5.37;;;2.60;98.00;;;;;;5030671;28;20494;-62
2023/03/02 08:15:35;;;;;;;9.40;4.97;;;2.70;98.00;;;;;;5013325;28;20935;-62
2023/03/02 08:18:02;;;;;;;5.27;3.40;;;2.80;98.00;;;;;;5030852;28;20459;-63
2023/03/02 08:20:31;;;;;;;12.03;6.57;;;2.80;98.00;;;;;;5030672;28;20832;-63
2023/03/02 08:22:58;;;;;;;8.97;4.57;;;2.90;98.00;;;;;;5030908;28;20454;-62
2023/03/02 08:25:27;;;;;;;7.77;4.17;;;3.00;98.00;;;;;;5030944;28;20456;-63
2023/03/02 08:27:54;;;;;;;7.37;4.53;;;3.20;98.00;;;;;;5013356;28;20494;-62
2023/03/02 08:30:21;;;;;;;11.40;4.57;;;3.30;98.00;;;;;;5009394;28;20456;-63
2023/03/02 08:32:48;;;;;;;8.70;4.80;;;3.50;98.00;;;;;;5013918;28;20463;-63
2023/03/02 08:35:16;;;;;;;5.67;3.40;;;3.60;98.00;;;;;;5016070;28;20541;-63
2023/03/02 08:37:45;;;;;;;7.97;5.10;;;3.60;98.00;;;;;;5017164;28;20475;-64
2023/03/02 08:40:13;;;;;;;7.10;3.60;;;3.80;98.00;;;;;;5034381;28;20517;-63
2023/03/02 08:42:40;;;;;;;7.50;4.70;;;3.90;98.00;;;;;;5034241;28;20461;-64
2023/03/02 08:45:08;;;;;;;10.00;5.23;;;4.00;98.00;;;;;;5034358;28;20460;-63
2023/03/02 08:47:36;;;;;;;10.77;4.20;;;4.10;98.00;;;;;;5012830;28;20545;-63
2023/03/02 08:50:03;;;;;;;6.90;4.10;;;4.20;98.00;;;;;;5017405;28;20535;-63
2023/03/02 08:52:32;;;;;;;4.70;3.27;;;4.40;98.00;;;;;;5034742;28;20527;-62
2023/03/02 08:55:01;;;;;;;9.80;5.50;;;4.50;98.00;;;;;;5034373;28;20454;-63
2023/03/02 08:57:28;;;;;;;6.97;4.47;;;4.60;98.00;;;;;;5034007;28;20955;-64
2023/03/02 08:59:55;;;;;;;7.30;3.50;;;4.70;98.00;;;;;;5034060;28;20963;-64
2023/03/02 09:02:22;;;;;;;7.00;3.50;;;4.80;98.00;;;;;;5033820;28;20461;-63
2023/03/02 09:04:50;;;;;;;6.27;4.20;;;5.00;98.00;;;;;;5034037;28;20468;-64
2023/03/02 09:07:17;;;;;;;9.03;3.90;;;5.20;98.00;;;;;;5033309;28;20815;-64
2023/03/02 09:09:44;;;;;;;6.13;3.90;;;5.30;98.00;;;;;;5033625;28;20519;-63
2023/03/02 09:12:13;;;;;;;9.97;5.10;;;5.40;98.00;;;;;;5033452;28;21000;-63
2023/03/02 09:14:40;;;;;;;7.50;4.00;;;5.50;98.00;;;;;;5033547;28;20514;-63
2023/03/02 09:17:07;;;;;;;7.30;3.37;;;5.60;98.00;;;;;;5033627;28;20976;-64
2023/03/02 09:19:40;;;;;;;9.97;4.83;;;5.80;98.00;;;;;;5033565;28;20468;-64
2023/03/02 09:22:07;;;;;;;7.03;3.90;;;5.80;98.00;;;;;;5016797;28;20470;-64
2023/03/02 09:24:35;;;;;;;9.70;4.97;;;6.00;98.00;;;;;;5033271;28;20556;-63
2023/03/02 09:27:02;;;;;;;12.00;4.87;;;6.10;98.00;;;;;;5033450;28;20812;-64
2023/03/02 09:29:30;;;;;;;9.80;4.90;;;6.30;98.00;;;;;;5033402;28;20458;-63
2023/03/02 09:32:00;;;;;;;13.70;4.93;;;6.40;98.00;;;;;;5033821;28;20875;-63
2023/03/02 09:34:28;;;;;;;7.80;4.07;;;6.50;98.00;;;;;;5033347;28;20461;-63
2023/03/02 09:36:56;;;;;;;8.07;4.20;;;6.60;98.00;;;;;;5033410;28;20491;-64
2023/03/02 09:39:23;;;;;;;8.40;4.30;;;6.80;98.00;;;;;;5015715;28;20466;-64
2023/03/02 09:42:22;;;;;;;10.57;4.43;;;7.00;98.00;;;;;;5015703;28;20964;-63
2023/03/02 09:45:21;;;;;;;7.27;3.53;;;7.20;98.00;;;;;;5032802;28;20489;-64
2023/03/02 09:48:01;;;;;;;10.47;4.40;;;7.40;98.00;;;;;;5032981;28;20544;-64
2023/03/02 09:50:32;;;;;;;9.33;4.10;;;7.50;98.00;;;;;;5032801;28;20471;-64
2023/03/02 09:53:21;;;;;;;7.47;3.80;;;7.50;98.00;;;;;;5033004;28;20940;-64
2023/03/02 09:55:53;;;;;;;12.17;4.57;;;7.50;98.00;;;;;;5017288;28;20520;-63
2023/03/02 09:58:22;;;;;;;14.43;5.40;;;7.80;98.00;;;;;;5032868;28;20831;-63
2023/03/02 10:00:51;;;;;;;9.53;3.70;;;8.00;98.00;;;;;;5015380;28;20461;-64
2023/03/02 10:03:21;;;;;;;9.77;4.77;;;8.10;98.00;;;;;;5032794;28;20478;-63
2023/03/02 10:05:50;;;;;;;11.00;4.63;;;8.20;98.00;;;;;;5032538;28;20970;-64
2023/03/02 10:08:19;;;;;;;10.10;3.97;;;8.30;98.00;;;;;;5032380;28;20547;-63
2023/03/02 10:10:53;;;;;;;10.93;5.43;;;8.50;98.00;;;;;;5032815;28;20455;-64
2023/03/02 10:13:25;;;;;;;13.40;4.93;;;8.70;98.00;;;;;;5032438;28;20998;-64
2023/03/02 10:16:09;;;;;;;10.83;4.80;;;8.80;98.00;;;;;;5015487;28;20467;-64
2023/03/02 10:18:41;;;;;;;9.60;4.27;;;9.00;98.00;;;;;;5014549;28;20469;-64
2023/03/02 10:21:14;;;;;;;13.43;5.47;;;9.20;98.00;;;;;;5032524;28;20927;-64
2023/03/02 10:23:46;;;;;;;12.27;4.90;;;9.30;98.00;;;;;;5028134;28;20453;-64
2023/03/02 10:26:26;;;;;;;11.80;4.90;;;9.50;98.00;;;;;;5020428;28;20467;-64
2023/03/02 10:29:00;;;;;;;12.97;5.50;;;9.60;98.00;;;;;;5013086;28;20495;-64
2023/03/02 10:31:30;;;;;;;13.03;5.03;;;9.50;98.00;;;;;;5013405;28;20550;-64
2023/03/02 10:33:59;;;;;;;11.70;5.03;;;9.70;98.00;;;;;;5013182;28;20463;-65
2023/03/02 10:36:29;;;;;;;17.00;5.20;;;9.90;98.00;;;;;;5013222;28;20463;-64
2023/03/02 10:38:59;;;;;;;11.97;5.30;;;10.10;98.00;;;;;;5012922;28;20482;-64
2023/03/02 10:41:31;;;;;;;11.43;5.23;;;10.30;98.00;;;;;;5015878;28;20493;-62
2023/03/02 10:44:02;;;;;;;13.73;5.80;;;10.40;98.00;;;;;;5029403;28;20501;-64
2023/03/02 10:46:41;;;;;;;16.63;5.10;;;10.50;98.00;;;;;;5031650;28;20520;-65
2023/03/02 10:49:24;;;;;;;10.60;4.80;;;10.70;98.00;;;;;;5031804;28;20569;-64
2023/03/02 10:51:57;;;;;;;10.30;5.00;;;10.90;98.00;;;;;;5031605;28;20491;-63
2023/03/02 10:54:25;;;;;;;9.67;4.23;;;11.00;98.00;;;;;;5031854;28;20861;-63
2023/03/02 10:56:56;;;;;;;10.27;5.00;;;11.00;97.90;;;;;;5031159;28;20497;-63
2023/03/02 10:59:40;;;;;;;15.70;4.00;;;11.00;97.80;;;;;;5031512;28;20458;-64
2023/03/02 11:02:17;;;;;;;14.67;5.20;;;11.10;97.90;;;;;;5031585;28;20602;-64
2023/03/02 11:04:45;;;;;;;10.87;5.33;;;11.30;98.00;;;;;;5012687;28;20822;-63
2023/03/02 11:07:16;;;;;;;8.90;4.57;;;11.40;98.00;;;;;;5011884;28;20477;-64
2023/03/02 11:09:44;;;;;;;14.90;4.57;;;11.60;97.00;;;;;;5011502;28;20490;-63
2023/03/02 11:12:16;;;;;;;14.23;5.40;;;11.60;96.20;;;;;;5011755;28;20495;-63
2023/03/02 11:14:44;;;;;;;15.47;5.73;;;11.60;96.60;;;;;;5011499;28;21027;-64
2023/03/02 11:17:30;;;;;;;12.07;5.27;;;11.80;96.50;;;;;;5011591;28;20489;-63
2023/03/02 11:19:57;;;;;;;12.10;5.10;;;12.10;96.70;;;;;;5011600;28;20799;-63
2023/03/02 11:22:33;;;;;;;11.73;5.10;;;12.30;96.60;;;;;;5011675;28;20462;-63
2023/03/02 11:25:06;;;;;;;12.73;5.50;;;12.40;94.70;;;;;;5011421;28;20831;-63
2023/03/02 11:27:37;;;;;;;14.37;6.20;;;12.60;94.70;;;;;;5011660;28;20470;-63
2023/03/02 11:30:12;;;;;;;12.40;5.10;;;12.90;93.80;;;;;;5011506;28;20838;-64
2023/03/02 11:32:45;;;;;;;12.63;4.87;;;13.20;95.00;;;;;;5011619;28;20473;-64
2023/03/02 11:35:19;;;;;;;14.63;5.20;;;13.40;93.20;;;;;;5010479;28;20535;-65
2023/03/02 11:37:50;;;;;;;14.57;4.40;;;13.60;91.40;;;;;;5011798;28;20464;-64
2023/03/02 11:40:25;;;;;;;15.10;5.53;;;13.60;91.30;;;;;;5011376;28;20459;-63
2023/03/02 11:42:56;;;;;;;13.77;4.80;;;13.60;91.20;;;;;;5011552;28;20817;-64
2023/03/02 11:45:26;;;;;;;15.40;5.93;;;13.70;91.80;;;;;;5011318;28;20512;-63
2023/03/02 11:48:03;;;;;;;14.00;5.83;;;14.00;91.20;;;;;;5011067;28;20493;-64
2023/03/02 11:50:35;;;;;;;17.63;5.87;;;14.30;91.10;;;;;;5011431;28;20478;-63
2023/03/02 11:53:06;;;;;;;12.77;5.03;;;14.40;90.30;;;;;;5011300;28;20467;-64
2023/03/02 11:55:38;;;;;;;11.20;4.80;;;14.50;89.10;;;;;;5011150;28;20661;-64
2023/03/02 11:58:06;;;;;;;12.10;5.23;;;14.40;89.30;;;;;;5011291;28;20821;-63
2023/03/02 12:00:36;;;;;;;15.60;5.80;;;14.70;89.80;;;;;;5011266;28;20470;-64
2023/03/02 12:03:07;;;;;;;12.63;5.57;;;14.80;88.40;;;;;;5011005;28;20458;-64
2023/03/02 12:05:37;;;;;;;9.50;4.90;;;15.00;87.30;;;;;;5010999;28;20470;-65
2023/03/02 12:08:07;;;;;;;15.10;5.47;;;15.30;86.10;;;;;;5010968;28;20911;-64
2023/03/02 12:10:38;;;;;;;12.23;5.53;;;15.50;86.00;;;;;;5014884;28;20520;-63
2023/03/02 12:13:18;;;;;;;10.43;4.60;;;15.60;85.70;;;;;;5014657;28;20475;-63
2023/03/02 12:18:42;;;;;;;12.47;5.10;;;15.70;85.90;;;;;;5014879;28;20470;-63
2023/03/02 12:21:11;;;;;;;13.37;6.03;;;15.90;86.10;;;;;;5014737;28;20565;-64
2023/03/02 12:23:54;;;;;;;11.93;5.13;;;15.80;84.70;;;;;;5014845;28;20797;-64
2023/03/02 12:26:28;;;;;;;16.33;5.60;;;15.80;85.30;;;;;;5014585;28;20491;-65
2023/03/02 12:28:59;;;;;;;11.60;5.10;;;15.80;84.60;;;;;;5012125;28;20479;-64
2023/03/02 12:31:27;;;;;;;12.07;5.57;;;15.90;85.50;;;;;;5014582;28;20458;-64
2023/03/02 12:33:55;;;;;;;12.20;5.57;;;16.00;86.10;;;;;;5014685;28;20508;-63
2023/03/02 12:36:29;;;;;;;11.53;5.57;;;16.00;84.10;;;;;;5014679;28;20477;-64
2023/03/02 12:39:17;;;;;;;14.20;5.87;;;15.90;84.80;;;;;;5014628;28;20823;-64
2023/03/02 12:42:05;;;;;;;10.90;4.90;;;16.10;85.20;;;;;;5014807;28;20462;-64
2023/03/02 12:44:47;;;;;;;13.27;5.17;;;16.20;84.20;;;;;;5014420;28;20471;-64
2023/03/02 12:47:24;;;;;;;13.20;5.50;;;16.20;84.90;;;;;;5014443;28;20896;-65
2023/03/02 12:49:56;;;;;;;10.03;4.87;;;16.60;84.90;;;;;;5014620;28;20849;-64
2023/03/02 12:52:28;;;;;;;13.37;5.37;;;16.90;83.30;;;;;;5014508;28;20455;-66
2023/03/02 12:55:04;;;;;;;13.43;5.80;;;17.00;83.20;;;;;;5020090;28;20977;-64
2023/03/02 12:57:32;;;;;;;13.30;5.73;;;16.90;83.30;;;;;;5014934;28;20470;-64
2023/03/02 13:00:03;;;;;;;11.17;5.50;;;17.00;82.40;;;;;;5014761;28;20926;-63
2023/03/02 13:02:32;;;;;;;15.20;5.10;;;17.10;81.60;;;;;;5014867;28;20992;-64
2023/03/02 13:05:05;;;;;;;12.23;4.80;;;17.00;82.30;;;;;;5014627;28;20459;-64
2023/03/02 13:07:36;;;;;;;20.83;5.83;;;17.10;82.00;;;;;;5014915;28;20451;-64
2023/03/02 13:10:08;;;;;;;11.53;5.37;;;17.20;82.30;;;;;;5014669;28;20487;-64